createdAt,value
2023-01-13T00:00:02.229Z,88.24663024593069
2023-01-13T00:15:01.879Z,87.49606238236231
2023-01-13T00:30:02.502Z,86.95813935733445
2023-01-13T00:45:02.125Z,85.99346832091454
2023-01-13T01:00:01.796Z,84.80615883975975
2023-01-13T01:15:02.473Z,84.20180031748197
2023-01-13T01:30:02.118Z,83.63743503098883
2023-01-13T01:45:01.738Z,83.6442257892602
2023-01-13T02:00:02.364Z,82.22201812217003
2023-01-13T02:15:01.930Z,81.44950004161404
2023-01-13T02:30:01.632Z,80.55765765359453
2023-01-13T02:45:02.259Z,79.23035167181222
2023-01-13T03:00:01.865Z,79.32715410906854
2023-01-13T03:15:02.528Z,79.50111921562626
2023-01-13T03:30:02.194Z,79.04457833105707
2023-01-13T03:45:01.819Z,78.4576799507964
2023-01-13T04:00:02.490Z,78.19982874036039
2023-01-13T04:15:02.143Z,78.1903816106501
2023-01-13T04:30:01.750Z,78.05956926611398
2023-01-13T04:45:02.358Z,78.07052375499292
2023-01-13T05:00:01.966Z,77.67705389938344
2023-01-13T05:15:01.616Z,77.42495627787027
2023-01-13T05:30:01.713Z,77.05657871393986
2023-01-13T05:45:02.343Z,77.3515539925875
2023-01-13T06:00:01.918Z,76.86883827742973
2023-01-13T06:15:02.545Z,76.44158081251496
2023-01-13T06:30:02.199Z,76.24820758287703
2023-01-13T06:45:01.814Z,74.89207135058606
2023-01-13T07:00:02.518Z,74.88324888576419
2023-01-13T07:15:02.210Z,74.2373386191318
2023-01-13T07:30:01.946Z,74.53979086680856
2023-01-13T07:45:01.702Z,75.31517708119321
2023-01-13T08:00:02.405Z,74.75613454915135
2023-01-13T08:15:02.090Z,74.58604730700738
2023-01-13T08:30:01.806Z,74.04396583238564
2023-01-13T08:45:02.519Z,73.8217368305663
2023-01-13T09:00:02.238Z,73.54028309164161
2023-01-13T09:15:01.936Z,73.03983390605745
2023-01-13T09:30:01.661Z,73.17924243420994
2023-01-13T09:45:02.368Z,72.02708254650413
2023-01-13T10:00:02.118Z,71.65029666987724
2023-01-13T10:15:01.820Z,71.35152589319354
2023-01-13T10:30:02.541Z,71.609512171787
2023-01-13T10:45:02.232Z,71.34019888345473
2023-01-13T11:00:01.932Z,70.73732339486413
2023-01-13T11:15:01.621Z,71.34632045790605
2023-01-13T11:30:02.336Z,72.05187724725805
2023-01-13T11:45:02.079Z,72.61992138639715
2023-01-13T12:00:01.761Z,74.62720052940642
2023-01-13T12:15:02.441Z,74.94340037640774
2023-01-13T12:30:02.155Z,74.73068502603346
2023-01-13T12:45:01.838Z,74.77002066070494
2023-01-13T13:00:02.474Z,74.26884152269939
2023-01-13T13:15:03.587Z,73.56317332942085
2023-01-13T13:30:01.774Z,72.84844894674063
2023-01-13T13:45:02.429Z,72.61030712441583
2023-01-13T14:00:02.037Z,72.87687093696549
2023-01-13T14:15:01.672Z,72.55434350413545
2023-01-13T14:30:02.312Z,72.47456210987589
2023-01-13T14:45:01.949Z,72.0214512123456
2023-01-13T15:00:01.640Z,71.81844243251906
2023-01-13T15:15:02.285Z,73.09947080056111
2023-01-13T15:30:01.980Z,73.91286713935227
2023-01-13T15:45:01.632Z,74.9424850252954
2023-01-13T16:00:02.299Z,75.14286394004289
2023-01-13T16:15:01.998Z,76.00108640805492
2023-01-13T16:30:01.732Z,76.04294926892985
2023-01-13T16:45:02.414Z,76.44344983286724
2023-01-13T17:00:02.074Z,77.19148599654403
2023-01-13T17:15:01.742Z,76.4498291172881
2023-01-13T17:30:02.394Z,77.22997359517241
2023-01-13T17:45:02.027Z,77.72735038398973
2023-01-13T18:00:01.701Z,78.10461052009448
2023-01-13T18:15:02.319Z,78.24755509460299
2023-01-13T18:30:01.969Z,78.11348329771143
2023-01-13T18:45:01.632Z,77.86234537340316
2023-01-13T19:00:02.288Z,77.19521664536126
2023-01-13T19:15:02.000Z,76.8188840230637
2023-01-13T19:30:02.303Z,75.98508050517029
2023-01-13T19:45:02.326Z,75.88597262560798
2023-01-13T20:00:01.924Z,75.72200004515493
2023-01-13T20:15:01.598Z,75.5566989116905
2023-01-13T20:30:02.247Z,75.59378900175831
2023-01-13T20:45:01.901Z,74.78990301108753
2023-01-13T21:00:02.571Z,75.83146292934245
2023-01-13T21:15:02.279Z,77.01166470594852
2023-01-13T21:30:01.971Z,77.27869787914689
2023-01-13T21:45:01.643Z,77.77562064921155
2023-01-13T22:00:02.294Z,77.89919455590952
2023-01-13T22:15:01.916Z,78.16210137957306
2023-01-13T22:30:01.650Z,78.53886119514353
2023-01-13T22:45:02.305Z,78.65778169711574
2023-01-13T23:00:02.027Z,78.68521776138181
2023-01-13T23:15:01.727Z,78.43893496752851
2023-01-13T23:30:02.372Z,78.66693742573231
2023-01-13T23:45:02.005Z,78.93264555907508
